Terminal Aerodrome Forecast
Issued by NWS Wilmington, OH

Current Version | Previous Version | Graphics & Text | Print | Product List | Glossary On
Versions: 1 2 3 4 5 6 7 8 9 10 11 12 13 14 15
000
FTUS41 KILN 262300
TAFILN
TAF
KILN 262340Z 2700/2724 17003KT P6SM VCTS SCT050CB BKN250
     FM270100 23004KT P6SM SCT050 BKN250
     FM270800 VRB02KT 5SM BR SCT050
     FM271200 34004KT P6SM VCTS BKN050CB
     FM271800 34005KT P6SM SCT050 SCT100=

USA.gov is the U.S. government's official web portal to all federal, state and local government web resources and services.